sensor_id;sensor_type;location;lat;lon;timestamp;temperature;humidity
21487;DHT22;10905;50.822;4.336;2022-09-28T00:01:35;10.70;99.90
21487;DHT22;10905;50.822;4.336;2022-09-28T00:04:00;10.70;99.90
21487;DHT22;10905;50.822;4.336;2022-09-28T00:06:27;10.60;99.90
21487;DHT22;10905;50.822;4.336;2022-09-28T00:08:52;10.60;99.90
21487;DHT22;10905;50.822;4.336;2022-09-28T00:11:19;10.60;99.90
21487;DHT22;10905;50.822;4.336;2022-09-28T00:13:47;10.60;99.90
21487;DHT22;10905;50.822;4.336;2022-09-28T00:16:14;10.60;99.90
21487;DHT22;10905;50.822;4.336;2022-09-28T00:18:40;10.60;99.90
21487;DHT22;10905;50.822;4.336;2022-09-28T00:21:10;10.60;99.90
21487;DHT22;10905;50.822;4.336;2022-09-28T00:23:39;10.70;99.90
21487;DHT22;10905;50.822;4.336;2022-09-28T00:26:28;10.70;99.90
21487;DHT22;10905;50.822;4.336;2022-09-28T00:28:55;10.70;99.90
21487;DHT22;10905;50.822;4.336;2022-09-28T00:31:22;10.80;99.90
21487;DHT22;10905;50.822;4.336;2022-09-28T00:33:49;10.80;99.90
21487;DHT22;10905;50.822;4.336;2022-09-28T00:36:15;10.70;99.90
21487;DHT22;10905;50.822;4.336;2022-09-28T00:38:40;10.60;99.90
21487;DHT22;10905;50.822;4.336;2022-09-28T00:41:06;10.50;99.90
21487;DHT22;10905;50.822;4.336;2022-09-28T00:43:32;10.40;99.90
21487;DHT22;10905;50.822;4.336;2022-09-28T00:45:58;10.50;99.90
21487;DHT22;10905;50.822;4.336;2022-09-28T00:48:24;10.60;99.90
21487;DHT22;10905;50.822;4.336;2022-09-28T00:50:51;10.60;99.90
21487;DHT22;10905;50.822;4.336;2022-09-28T00:53:18;10.60;99.90
21487;DHT22;10905;50.822;4.336;2022-09-28T00:55:47;10.50;99.90
21487;DHT22;10905;50.822;4.336;2022-09-28T00:58:15;10.40;99.90
21487;DHT22;10905;50.822;4.336;2022-09-28T01:00:42;10.50;99.90
21487;DHT22;10905;50.822;4.336;2022-09-28T01:03:08;10.60;99.90
21487;DHT22;10905;50.822;4.336;2022-09-28T01:05:34;10.50;99.90
21487;DHT22;10905;50.822;4.336;2022-09-28T01:08:00;10.40;99.90
21487;DHT22;10905;50.822;4.336;2022-09-28T01:10:26;10.30;99.90
21487;DHT22;10905;50.822;4.336;2022-09-28T01:12:53;10.40;99.90
21487;DHT22;10905;50.822;4.336;2022-09-28T01:15:20;10.40;99.90
21487;DHT22;10905;50.822;4.336;2022-09-28T01:18:10;10.40;99.90
21487;DHT22;10905;50.822;4.336;2022-09-28T01:20:53;10.40;99.90
21487;DHT22;10905;50.822;4.336;2022-09-28T01:26:17;10.40;99.90
21487;DHT22;10905;50.822;4.336;2022-09-28T01:28:47;10.40;99.90
21487;DHT22;10905;50.822;4.336;2022-09-28T01:31:14;10.40;99.90
21487;DHT22;10905;50.822;4.336;2022-09-28T01:33:42;10.30;99.90
21487;DHT22;10905;50.822;4.336;2022-09-28T01:36:09;10.40;99.90
21487;DHT22;10905;50.822;4.336;2022-09-28T01:38:38;10.50;99.90
21487;DHT22;10905;50.822;4.336;2022-09-28T01:41:05;10.40;99.90
21487;DHT22;10905;50.822;4.336;2022-09-28T01:43:32;10.40;99.90
21487;DHT22;10905;50.822;4.336;2022-09-28T01:46:13;10.30;99.90
21487;DHT22;10905;50.822;4.336;2022-09-28T01:49:00;10.50;99.90
21487;DHT22;10905;50.822;4.336;2022-09-28T01:51:34;10.50;99.90
21487;DHT22;10905;50.822;4.336;2022-09-28T01:54:05;10.60;99.90
21487;DHT22;10905;50.822;4.336;2022-09-28T01:56:37;10.70;99.90
21487;DHT22;10905;50.822;4.336;2022-09-28T01:59:14;10.80;99.90
21487;DHT22;10905;50.822;4.336;2022-09-28T02:01:42;10.70;99.90
21487;DHT22;10905;50.822;4.336;2022-09-28T02:04:14;10.50;99.90
21487;DHT22;10905;50.822;4.336;2022-09-28T02:06:44;10.50;99.90
21487;DHT22;10905;50.822;4.336;2022-09-28T02:09:12;10.50;99.90
21487;DHT22;10905;50.822;4.336;2022-09-28T02:11:42;10.40;99.90
21487;DHT22;10905;50.822;4.336;2022-09-28T02:14:10;10.40;99.90
21487;DHT22;10905;50.822;4.336;2022-09-28T02:16:40;10.40;99.90
21487;DHT22;10905;50.822;4.336;2022-09-28T02:19:10;10.40;99.90
21487;DHT22;10905;50.822;4.336;2022-09-28T02:24:23;10.50;99.90
21487;DHT22;10905;50.822;4.336;2022-09-28T02:26:51;10.40;99.90
21487;DHT22;10905;50.822;4.336;2022-09-28T02:29:19;10.40;99.90
21487;DHT22;10905;50.822;4.336;2022-09-28T02:31:44;10.40;99.90
21487;DHT22;10905;50.822;4.336;2022-09-28T02:34:10;10.40;99.90
21487;DHT22;10905;50.822;4.336;2022-09-28T02:36:35;10.50;99.90
21487;DHT22;10905;50.822;4.336;2022-09-28T02:39:01;10.40;99.90
21487;DHT22;10905;50.822;4.336;2022-09-28T02:44:02;10.50;99.90
21487;DHT22;10905;50.822;4.336;2022-09-28T02:49:27;10.60;99.90
21487;DHT22;10905;50.822;4.336;2022-09-28T03:07:26;10.70;99.90
21487;DHT22;10905;50.822;4.336;2022-09-28T03:09:55;10.70;99.90
21487;DHT22;10905;50.822;4.336;2022-09-28T03:12:23;10.70;99.90
21487;DHT22;10905;50.822;4.336;2022-09-28T03:17:33;10.70;99.90
21487;DHT22;10905;50.822;4.336;2022-09-28T03:19:58;10.70;99.90
21487;DHT22;10905;50.822;4.336;2022-09-28T03:22:24;10.60;99.90
21487;DHT22;10905;50.822;4.336;2022-09-28T03:24:49;10.70;99.90
21487;DHT22;10905;50.822;4.336;2022-09-28T03:27:15;10.70;99.90
21487;DHT22;10905;50.822;4.336;2022-09-28T03:29:40;10.60;99.90
21487;DHT22;10905;50.822;4.336;2022-09-28T03:32:06;10.60;99.90
21487;DHT22;10905;50.822;4.336;2022-09-28T03:34:31;10.70;99.90
21487;DHT22;10905;50.822;4.336;2022-09-28T03:36:57;10.60;99.90
21487;DHT22;10905;50.822;4.336;2022-09-28T03:39:22;10.60;99.90
21487;DHT22;10905;50.822;4.336;2022-09-28T03:41:48;10.60;99.90
21487;DHT22;10905;50.822;4.336;2022-09-28T03:44:13;10.60;99.90
21487;DHT22;10905;50.822;4.336;2022-09-28T03:46:39;10.50;99.90
21487;DHT22;10905;50.822;4.336;2022-09-28T03:49:04;10.50;99.90
21487;DHT22;10905;50.822;4.336;2022-09-28T03:51:29;10.50;99.90
21487;DHT22;10905;50.822;4.336;2022-09-28T03:53:55;10.30;99.90
21487;DHT22;10905;50.822;4.336;2022-09-28T03:56:21;10.40;99.90
21487;DHT22;10905;50.822;4.336;2022-09-28T03:58:46;10.30;99.90
21487;DHT22;10905;50.822;4.336;2022-09-28T04:01:12;10.20;99.90
21487;DHT22;10905;50.822;4.336;2022-09-28T04:03:40;10.20;99.90
21487;DHT22;10905;50.822;4.336;2022-09-28T04:06:05;10.20;99.90
21487;DHT22;10905;50.822;4.336;2022-09-28T04:08:31;10.20;99.90
21487;DHT22;10905;50.822;4.336;2022-09-28T04:10:58;10.10;99.90
21487;DHT22;10905;50.822;4.336;2022-09-28T04:13:24;9.90;99.90
21487;DHT22;10905;50.822;4.336;2022-09-28T04:15:53;9.80;99.90
21487;DHT22;10905;50.822;4.336;2022-09-28T04:18:19;9.80;99.90
21487;DHT22;10905;50.822;4.336;2022-09-28T04:20:45;9.80;99.90
21487;DHT22;10905;50.822;4.336;2022-09-28T04:23:15;10.10;99.90
21487;DHT22;10905;50.822;4.336;2022-09-28T04:25:41;9.70;99.90
21487;DHT22;10905;50.822;4.336;2022-09-28T04:28:07;9.70;99.90
21487;DHT22;10905;50.822;4.336;2022-09-28T04:30:51;9.70;99.90
21487;DHT22;10905;50.822;4.336;2022-09-28T04:33:17;9.70;99.90
21487;DHT22;10905;50.822;4.336;2022-09-28T04:35:42;9.70;99.90
21487;DHT22;10905;50.822;4.336;2022-09-28T04:38:08;9.60;99.90
21487;DHT22;10905;50.822;4.336;2022-09-28T04:40:33;9.60;99.90
21487;DHT22;10905;50.822;4.336;2022-09-28T04:42:59;9.60;99.90
21487;DHT22;10905;50.822;4.336;2022-09-28T04:45:24;9.70;99.90
21487;DHT22;10905;50.822;4.336;2022-09-28T04:47:52;9.70;99.90
21487;DHT22;10905;50.822;4.336;2022-09-28T04:50:18;9.70;99.90
21487;DHT22;10905;50.822;4.336;2022-09-28T04:52:44;9.70;99.90
21487;DHT22;10905;50.822;4.336;2022-09-28T04:55:13;9.60;99.90
21487;DHT22;10905;50.822;4.336;2022-09-28T04:57:39;9.60;99.90
21487;DHT22;10905;50.822;4.336;2022-09-28T05:00:04;9.60;99.90
21487;DHT22;10905;50.822;4.336;2022-09-28T05:02:30;9.70;99.90
21487;DHT22;10905;50.822;4.336;2022-09-28T05:04:56;9.70;99.90
21487;DHT22;10905;50.822;4.336;2022-09-28T05:07:23;9.70;99.90
21487;DHT22;10905;50.822;4.336;2022-09-28T05:09:49;9.90;99.90
21487;DHT22;10905;50.822;4.336;2022-09-28T05:12:14;9.80;99.90
21487;DHT22;10905;50.822;4.336;2022-09-28T05:14:40;9.80;99.90
21487;DHT22;10905;50.822;4.336;2022-09-28T05:17:06;9.70;99.90
21487;DHT22;10905;50.822;4.336;2022-09-28T05:19:32;9.70;99.90
21487;DHT22;10905;50.822;4.336;2022-09-28T05:21:59;9.70;99.90
21487;DHT22;10905;50.822;4.336;2022-09-28T05:24:28;9.70;99.90
21487;DHT22;10905;50.822;4.336;2022-09-28T05:26:53;9.70;99.90
21487;DHT22;10905;50.822;4.336;2022-09-28T05:29:19;9.70;99.90
21487;DHT22;10905;50.822;4.336;2022-09-28T05:31:44;9.60;99.90
21487;DHT22;10905;50.822;4.336;2022-09-28T05:34:10;9.70;99.90
21487;DHT22;10905;50.822;4.336;2022-09-28T05:36:35;9.70;99.90
21487;DHT22;10905;50.822;4.336;2022-09-28T05:39:01;9.70;99.90
21487;DHT22;10905;50.822;4.336;2022-09-28T05:41:28;9.80;99.90
21487;DHT22;10905;50.822;4.336;2022-09-28T05:43:53;9.70;99.90
21487;DHT22;10905;50.822;4.336;2022-09-28T05:46:19;9.70;99.90
21487;DHT22;10905;50.822;4.336;2022-09-28T05:48:46;9.60;99.90
21487;DHT22;10905;50.822;4.336;2022-09-28T05:51:11;9.60;99.90
21487;DHT22;10905;50.822;4.336;2022-09-28T05:53:37;9.50;99.90
21487;DHT22;10905;50.822;4.336;2022-09-28T05:56:02;9.60;99.90
21487;DHT22;10905;50.822;4.336;2022-09-28T05:58:28;9.70;99.90
21487;DHT22;10905;50.822;4.336;2022-09-28T06:00:54;9.60;99.90
21487;DHT22;10905;50.822;4.336;2022-09-28T06:03:20;9.70;99.90
21487;DHT22;10905;50.822;4.336;2022-09-28T06:05:45;9.50;99.90
21487;DHT22;10905;50.822;4.336;2022-09-28T06:08:11;9.50;99.90
21487;DHT22;10905;50.822;4.336;2022-09-28T06:10:37;9.60;99.90
21487;DHT22;10905;50.822;4.336;2022-09-28T06:13:03;9.70;99.90
21487;DHT22;10905;50.822;4.336;2022-09-28T06:15:29;9.70;99.90
21487;DHT22;10905;50.822;4.336;2022-09-28T06:20:21;9.80;99.90
21487;DHT22;10905;50.822;4.336;2022-09-28T06:22:49;9.90;99.90
21487;DHT22;10905;50.822;4.336;2022-09-28T06:25:14;9.90;99.90
21487;DHT22;10905;50.822;4.336;2022-09-28T06:27:40;10.00;99.90
21487;DHT22;10905;50.822;4.336;2022-09-28T06:30:06;10.10;99.90
21487;DHT22;10905;50.822;4.336;2022-09-28T06:32:32;10.00;99.90
21487;DHT22;10905;50.822;4.336;2022-09-28T06:34:57;10.10;99.90
21487;DHT22;10905;50.822;4.336;2022-09-28T06:37:23;10.20;99.90
21487;DHT22;10905;50.822;4.336;2022-09-28T06:39:50;10.10;99.90
21487;DHT22;10905;50.822;4.336;2022-09-28T06:42:16;10.10;99.90
21487;DHT22;10905;50.822;4.336;2022-09-28T06:44:43;10.10;99.90
21487;DHT22;10905;50.822;4.336;2022-09-28T06:47:11;10.10;99.90
21487;DHT22;10905;50.822;4.336;2022-09-28T06:49:36;10.20;99.90
21487;DHT22;10905;50.822;4.336;2022-09-28T06:52:02;10.00;99.90
21487;DHT22;10905;50.822;4.336;2022-09-28T06:54:27;9.90;99.90
21487;DHT22;10905;50.822;4.336;2022-09-28T06:56:53;9.90;99.90
21487;DHT22;10905;50.822;4.336;2022-09-28T06:59:18;9.80;99.90
21487;DHT22;10905;50.822;4.336;2022-09-28T07:01:44;10.00;99.90
21487;DHT22;10905;50.822;4.336;2022-09-28T07:04:10;10.30;99.90
21487;DHT22;10905;50.822;4.336;2022-09-28T07:06:35;10.00;99.90
21487;DHT22;10905;50.822;4.336;2022-09-28T07:09:02;10.00;99.90
21487;DHT22;10905;50.822;4.336;2022-09-28T07:11:35;10.10;99.90
21487;DHT22;10905;50.822;4.336;2022-09-28T07:14:01;10.10;99.90
21487;DHT22;10905;50.822;4.336;2022-09-28T07:16:26;10.20;99.90
21487;DHT22;10905;50.822;4.336;2022-09-28T07:18:52;10.20;99.90
21487;DHT22;10905;50.822;4.336;2022-09-28T07:21:18;10.20;99.90
21487;DHT22;10905;50.822;4.336;2022-09-28T07:23:43;10.10;99.90
21487;DHT22;10905;50.822;4.336;2022-09-28T07:26:09;10.10;99.90
21487;DHT22;10905;50.822;4.336;2022-09-28T07:28:34;10.10;99.90
21487;DHT22;10905;50.822;4.336;2022-09-28T07:31:00;10.10;99.90
21487;DHT22;10905;50.822;4.336;2022-09-28T07:33:27;10.10;99.90
21487;DHT22;10905;50.822;4.336;2022-09-28T07:35:57;10.20;99.90
21487;DHT22;10905;50.822;4.336;2022-09-28T07:38:22;10.30;99.90
21487;DHT22;10905;50.822;4.336;2022-09-28T07:40:48;10.40;99.90
21487;DHT22;10905;50.822;4.336;2022-09-28T07:43:32;10.50;99.90
21487;DHT22;10905;50.822;4.336;2022-09-28T07:45:57;10.60;99.90
21487;DHT22;10905;50.822;4.336;2022-09-28T07:48:23;10.60;99.90
21487;DHT22;10905;50.822;4.336;2022-09-28T07:50:55;10.70;99.90
21487;DHT22;10905;50.822;4.336;2022-09-28T07:53:22;10.70;99.90
21487;DHT22;10905;50.822;4.336;2022-09-28T07:55:56;10.70;99.90
21487;DHT22;10905;50.822;4.336;2022-09-28T07:58:24;10.70;99.90
21487;DHT22;10905;50.822;4.336;2022-09-28T08:00:50;10.80;99.90
21487;DHT22;10905;50.822;4.336;2022-09-28T08:03:16;10.90;99.90
21487;DHT22;10905;50.822;4.336;2022-09-28T08:05:42;10.90;99.90
21487;DHT22;10905;50.822;4.336;2022-09-28T08:08:08;11.00;99.90
21487;DHT22;10905;50.822;4.336;2022-09-28T08:10:34;11.00;99.90
21487;DHT22;10905;50.822;4.336;2022-09-28T08:12:59;10.90;99.90
21487;DHT22;10905;50.822;4.336;2022-09-28T08:15:26;10.80;99.90
21487;DHT22;10905;50.822;4.336;2022-09-28T08:17:52;10.80;99.90
21487;DHT22;10905;50.822;4.336;2022-09-28T08:20:18;10.90;99.90
21487;DHT22;10905;50.822;4.336;2022-09-28T08:23:05;10.90;99.90
21487;DHT22;10905;50.822;4.336;2022-09-28T08:25:31;10.90;99.90
21487;DHT22;10905;50.822;4.336;2022-09-28T08:27:57;10.90;99.90
21487;DHT22;10905;50.822;4.336;2022-09-28T08:30:24;10.90;99.90
21487;DHT22;10905;50.822;4.336;2022-09-28T08:32:49;11.00;99.90
21487;DHT22;10905;50.822;4.336;2022-09-28T08:35:15;11.00;99.90
21487;DHT22;10905;50.822;4.336;2022-09-28T08:37:40;11.10;99.90
21487;DHT22;10905;50.822;4.336;2022-09-28T08:40:17;11.00;99.90
21487;DHT22;10905;50.822;4.336;2022-09-28T08:42:44;11.20;99.90
21487;DHT22;10905;50.822;4.336;2022-09-28T08:45:11;11.20;99.90
21487;DHT22;10905;50.822;4.336;2022-09-28T08:47:47;11.30;99.90
21487;DHT22;10905;50.822;4.336;2022-09-28T08:50:35;11.30;99.90
21487;DHT22;10905;50.822;4.336;2022-09-28T08:53:10;11.40;99.90
21487;DHT22;10905;50.822;4.336;2022-09-28T08:55:39;11.40;99.90
21487;DHT22;10905;50.822;4.336;2022-09-28T08:58:13;11.50;99.90
21487;DHT22;10905;50.822;4.336;2022-09-28T09:00:49;11.50;99.90
21487;DHT22;10905;50.822;4.336;2022-09-28T09:03:15;11.50;99.90
21487;DHT22;10905;50.822;4.336;2022-09-28T09:05:51;11.50;99.90
21487;DHT22;10905;50.822;4.336;2022-09-28T09:13:29;11.80;99.90
21487;DHT22;10905;50.822;4.336;2022-09-28T09:16:01;11.90;99.90
21487;DHT22;10905;50.822;4.336;2022-09-28T09:18:38;11.90;99.90
21487;DHT22;10905;50.822;4.336;2022-09-28T09:21:11;11.90;99.90
21487;DHT22;10905;50.822;4.336;2022-09-28T09:23:55;12.00;99.90
21487;DHT22;10905;50.822;4.336;2022-09-28T09:26:25;12.30;99.90
21487;DHT22;10905;50.822;4.336;2022-09-28T09:29:15;12.50;99.90
21487;DHT22;10905;50.822;4.336;2022-09-28T09:41:34;12.90;99.90
21487;DHT22;10905;50.822;4.336;2022-09-28T09:47:11;13.10;99.90
21487;DHT22;10905;50.822;4.336;2022-09-28T09:49:37;13.00;99.90
21487;DHT22;10905;50.822;4.336;2022-09-28T09:52:05;13.00;99.90
21487;DHT22;10905;50.822;4.336;2022-09-28T09:54:45;12.90;99.90
21487;DHT22;10905;50.822;4.336;2022-09-28T09:59:39;12.90;99.90
21487;DHT22;10905;50.822;4.336;2022-09-28T10:07:42;13.00;99.90
21487;DHT22;10905;50.822;4.336;2022-09-28T10:10:15;13.10;99.90
21487;DHT22;10905;50.822;4.336;2022-09-28T10:12:41;13.00;99.90
21487;DHT22;10905;50.822;4.336;2022-09-28T10:15:07;13.00;99.90
21487;DHT22;10905;50.822;4.336;2022-09-28T10:17:32;13.10;99.90
21487;DHT22;10905;50.822;4.336;2022-09-28T10:19:59;13.10;99.90
21487;DHT22;10905;50.822;4.336;2022-09-28T10:22:25;13.30;99.90
21487;DHT22;10905;50.822;4.336;2022-09-28T10:24:52;13.40;99.90
21487;DHT22;10905;50.822;4.336;2022-09-28T10:27:24;13.50;99.90
21487;DHT22;10905;50.822;4.336;2022-09-28T10:29:52;13.50;99.90
21487;DHT22;10905;50.822;4.336;2022-09-28T10:32:20;13.50;99.90
21487;DHT22;10905;50.822;4.336;2022-09-28T10:34:46;13.40;99.90
21487;DHT22;10905;50.822;4.336;2022-09-28T10:37:11;13.80;99.90
21487;DHT22;10905;50.822;4.336;2022-09-28T10:39:54;13.90;99.90
21487;DHT22;10905;50.822;4.336;2022-09-28T10:42:21;14.20;99.90
21487;DHT22;10905;50.822;4.336;2022-09-28T10:44:52;14.50;99.90
21487;DHT22;10905;50.822;4.336;2022-09-28T10:47:18;14.50;99.90
21487;DHT22;10905;50.822;4.336;2022-09-28T10:49:44;14.80;99.90
21487;DHT22;10905;50.822;4.336;2022-09-28T10:54:56;14.60;99.90
21487;DHT22;10905;50.822;4.336;2022-09-28T10:57:32;14.70;99.90
21487;DHT22;10905;50.822;4.336;2022-09-28T10:59:58;14.60;99.90
21487;DHT22;10905;50.822;4.336;2022-09-28T11:02:27;14.70;99.90
21487;DHT22;10905;50.822;4.336;2022-09-28T11:04:55;14.70;99.90
21487;DHT22;10905;50.822;4.336;2022-09-28T11:07:22;14.90;99.90
21487;DHT22;10905;50.822;4.336;2022-09-28T11:09:49;14.70;99.90
21487;DHT22;10905;50.822;4.336;2022-09-28T11:12:21;14.90;99.90
21487;DHT22;10905;50.822;4.336;2022-09-28T11:14:48;14.70;99.90
21487;DHT22;10905;50.822;4.336;2022-09-28T11:19:50;14.70;99.90
21487;DHT22;10905;50.822;4.336;2022-09-28T11:24:45;14.70;99.90
21487;DHT22;10905;50.822;4.336;2022-09-28T11:27:21;14.60;99.90
21487;DHT22;10905;50.822;4.336;2022-09-28T11:30:05;14.70;99.90
21487;DHT22;10905;50.822;4.336;2022-09-28T11:32:40;14.70;99.90
21487;DHT22;10905;50.822;4.336;2022-09-28T11:35:14;14.70;99.90
21487;DHT22;10905;50.822;4.336;2022-09-28T11:43:06;14.80;99.90
21487;DHT22;10905;50.822;4.336;2022-09-28T11:45:53;15.00;99.90
21487;DHT22;10905;50.822;4.336;2022-09-28T11:48:24;15.10;99.90
21487;DHT22;10905;50.822;4.336;2022-09-28T11:50:53;15.10;99.90
21487;DHT22;10905;50.822;4.336;2022-09-28T12:00:46;14.80;99.90
21487;DHT22;10905;50.822;4.336;2022-09-28T12:03:15;15.40;99.90
21487;DHT22;10905;50.822;4.336;2022-09-28T12:05:55;15.50;99.90
21487;DHT22;10905;50.822;4.336;2022-09-28T12:08:29;15.60;99.90
21487;DHT22;10905;50.822;4.336;2022-09-28T12:11:01;15.70;99.90
21487;DHT22;10905;50.822;4.336;2022-09-28T12:13:31;15.40;99.90
21487;DHT22;10905;50.822;4.336;2022-09-28T12:16:02;15.40;99.90
21487;DHT22;10905;50.822;4.336;2022-09-28T12:18:34;15.40;99.90
21487;DHT22;10905;50.822;4.336;2022-09-28T12:23:31;15.50;99.90
21487;DHT22;10905;50.822;4.336;2022-09-28T12:25:59;15.30;99.90
21487;DHT22;10905;50.822;4.336;2022-09-28T12:28:38;15.20;99.90
21487;DHT22;10905;50.822;4.336;2022-09-28T12:31:11;15.00;99.90
21487;DHT22;10905;50.822;4.336;2022-09-28T12:33:38;14.80;99.90
21487;DHT22;10905;50.822;4.336;2022-09-28T12:38:47;14.70;99.90
21487;DHT22;10905;50.822;4.336;2022-09-28T12:51:33;14.80;99.90
21487;DHT22;10905;50.822;4.336;2022-09-28T12:54:03;15.00;99.90
21487;DHT22;10905;50.822;4.336;2022-09-28T13:09:21;14.90;99.90
21487;DHT22;10905;50.822;4.336;2022-09-28T13:17:13;15.80;99.90
21487;DHT22;10905;50.822;4.336;2022-09-28T13:19:50;16.10;99.90
21487;DHT22;10905;50.822;4.336;2022-09-28T13:24:56;16.00;99.90
21487;DHT22;10905;50.822;4.336;2022-09-28T13:27:37;15.80;99.90
21487;DHT22;10905;50.822;4.336;2022-09-28T13:30:05;15.60;99.90
21487;DHT22;10905;50.822;4.336;2022-09-28T13:32:31;15.40;99.90
21487;DHT22;10905;50.822;4.336;2022-09-28T13:34:57;15.40;99.90
21487;DHT22;10905;50.822;4.336;2022-09-28T13:37:26;15.30;99.90
21487;DHT22;10905;50.822;4.336;2022-09-28T13:40:01;15.20;99.90
21487;DHT22;10905;50.822;4.336;2022-09-28T13:42:46;15.30;99.90
21487;DHT22;10905;50.822;4.336;2022-09-28T13:48:08;15.60;99.90
21487;DHT22;10905;50.822;4.336;2022-09-28T13:57:56;15.70;99.90
21487;DHT22;10905;50.822;4.336;2022-09-28T14:00:44;15.70;99.90
21487;DHT22;10905;50.822;4.336;2022-09-28T14:08:36;15.30;99.90
21487;DHT22;10905;50.822;4.336;2022-09-28T14:16:36;15.00;99.90
21487;DHT22;10905;50.822;4.336;2022-09-28T14:26:58;15.10;99.90
21487;DHT22;10905;50.822;4.336;2022-09-28T14:29:27;15.30;99.90
21487;DHT22;10905;50.822;4.336;2022-09-28T14:32:35;15.20;99.90
21487;DHT22;10905;50.822;4.336;2022-09-28T14:34:45;15.20;99.90
21487;DHT22;10905;50.822;4.336;2022-09-28T14:40:20;14.80;99.90
21487;DHT22;10905;50.822;4.336;2022-09-28T14:54:11;15.00;99.90
21487;DHT22;10905;50.822;4.336;2022-09-28T14:56:55;15.30;99.90
21487;DHT22;10905;50.822;4.336;2022-09-28T14:59:24;14.80;99.90
21487;DHT22;10905;50.822;4.336;2022-09-28T15:01:57;15.90;99.90
21487;DHT22;10905;50.822;4.336;2022-09-28T15:04:26;16.20;99.90
21487;DHT22;10905;50.822;4.336;2022-09-28T15:06:52;16.40;99.90
21487;DHT22;10905;50.822;4.336;2022-09-28T15:09:34;16.40;99.90
21487;DHT22;10905;50.822;4.336;2022-09-28T15:12:13;16.30;99.90
21487;DHT22;10905;50.822;4.336;2022-09-28T15:17:11;15.90;99.90
21487;DHT22;10905;50.822;4.336;2022-09-28T15:19:41;15.80;99.90
21487;DHT22;10905;50.822;4.336;2022-09-28T15:22:14;15.60;99.90
21487;DHT22;10905;50.822;4.336;2022-09-28T15:24:43;15.70;99.90
21487;DHT22;10905;50.822;4.336;2022-09-28T15:27:13;15.80;99.90
21487;DHT22;10905;50.822;4.336;2022-09-28T15:29:38;15.90;99.90
21487;DHT22;10905;50.822;4.336;2022-09-28T15:32:04;15.80;99.90
21487;DHT22;10905;50.822;4.336;2022-09-28T15:34:31;15.60;99.90
21487;DHT22;10905;50.822;4.336;2022-09-28T15:37:23;15.60;99.90
21487;DHT22;10905;50.822;4.336;2022-09-28T15:39:49;15.70;99.90
21487;DHT22;10905;50.822;4.336;2022-09-28T15:42:15;15.80;99.90
21487;DHT22;10905;50.822;4.336;2022-09-28T15:44:41;15.60;99.90
21487;DHT22;10905;50.822;4.336;2022-09-28T15:49:36;15.50;99.90
21487;DHT22;10905;50.822;4.336;2022-09-28T15:52:03;15.70;99.90
21487;DHT22;10905;50.822;4.336;2022-09-28T15:54:30;15.60;99.90
21487;DHT22;10905;50.822;4.336;2022-09-28T15:56:59;15.60;99.90
21487;DHT22;10905;50.822;4.336;2022-09-28T15:59:33;15.60;99.90
21487;DHT22;10905;50.822;4.336;2022-09-28T16:02:13;15.50;99.90
21487;DHT22;10905;50.822;4.336;2022-09-28T16:12:21;15.20;99.90
21487;DHT22;10905;50.822;4.336;2022-09-28T16:14:48;15.10;99.90
21487;DHT22;10905;50.822;4.336;2022-09-28T16:17:16;15.10;99.90
21487;DHT22;10905;50.822;4.336;2022-09-28T16:19:42;15.00;99.90
21487;DHT22;10905;50.822;4.336;2022-09-28T16:22:08;15.00;99.90
21487;DHT22;10905;50.822;4.336;2022-09-28T16:24:39;15.00;99.90
21487;DHT22;10905;50.822;4.336;2022-09-28T16:27:22;15.00;99.90
21487;DHT22;10905;50.822;4.336;2022-09-28T16:30:01;14.80;99.90
21487;DHT22;10905;50.822;4.336;2022-09-28T16:32:33;14.80;99.90
21487;DHT22;10905;50.822;4.336;2022-09-28T16:37:37;15.10;99.90
21487;DHT22;10905;50.822;4.336;2022-09-28T16:40:07;14.90;99.90
21487;DHT22;10905;50.822;4.336;2022-09-28T16:42:33;14.90;99.90
21487;DHT22;10905;50.822;4.336;2022-09-28T16:44:59;15.00;99.90
21487;DHT22;10905;50.822;4.336;2022-09-28T16:47:26;15.00;99.90
21487;DHT22;10905;50.822;4.336;2022-09-28T16:49:57;15.00;99.90
21487;DHT22;10905;50.822;4.336;2022-09-28T16:52:22;14.90;99.90
21487;DHT22;10905;50.822;4.336;2022-09-28T16:55:09;14.90;99.90
21487;DHT22;10905;50.822;4.336;2022-09-28T16:57:44;14.80;99.90
21487;DHT22;10905;50.822;4.336;2022-09-28T17:00:14;14.80;99.90
21487;DHT22;10905;50.822;4.336;2022-09-28T17:02:43;14.80;99.90
21487;DHT22;10905;50.822;4.336;2022-09-28T17:05:10;14.70;99.90
21487;DHT22;10905;50.822;4.336;2022-09-28T17:07:37;14.60;99.90
21487;DHT22;10905;50.822;4.336;2022-09-28T17:10:08;14.50;99.90
21487;DHT22;10905;50.822;4.336;2022-09-28T17:12:36;14.40;99.90
21487;DHT22;10905;50.822;4.336;2022-09-28T17:15:02;14.40;99.90
21487;DHT22;10905;50.822;4.336;2022-09-28T17:17:27;14.40;99.90
21487;DHT22;10905;50.822;4.336;2022-09-28T17:19:55;14.40;99.90
21487;DHT22;10905;50.822;4.336;2022-09-28T17:22:21;14.30;99.90
21487;DHT22;10905;50.822;4.336;2022-09-28T17:24:46;14.10;99.90
21487;DHT22;10905;50.822;4.336;2022-09-28T17:27:14;14.10;99.90
21487;DHT22;10905;50.822;4.336;2022-09-28T17:29:41;14.00;99.90
21487;DHT22;10905;50.822;4.336;2022-09-28T17:32:11;13.90;99.90
21487;DHT22;10905;50.822;4.336;2022-09-28T17:34:40;13.70;99.90
21487;DHT22;10905;50.822;4.336;2022-09-28T17:37:07;13.70;99.90
21487;DHT22;10905;50.822;4.336;2022-09-28T17:39:33;13.60;99.90
21487;DHT22;10905;50.822;4.336;2022-09-28T17:41:59;13.60;99.90
21487;DHT22;10905;50.822;4.336;2022-09-28T17:44:24;13.70;99.90
21487;DHT22;10905;50.822;4.336;2022-09-28T17:46:50;13.50;99.90
21487;DHT22;10905;50.822;4.336;2022-09-28T17:49:16;13.50;99.90
21487;DHT22;10905;50.822;4.336;2022-09-28T17:51:42;13.50;99.90
21487;DHT22;10905;50.822;4.336;2022-09-28T17:54:08;13.40;99.90
21487;DHT22;10905;50.822;4.336;2022-09-28T17:56:34;13.30;99.90
21487;DHT22;10905;50.822;4.336;2022-09-28T17:59:09;13.20;99.90
21487;DHT22;10905;50.822;4.336;2022-09-28T18:01:36;13.10;99.90
21487;DHT22;10905;50.822;4.336;2022-09-28T18:04:04;13.00;99.90
21487;DHT22;10905;50.822;4.336;2022-09-28T18:06:30;13.00;99.90
21487;DHT22;10905;50.822;4.336;2022-09-28T18:08:57;13.00;99.90
21487;DHT22;10905;50.822;4.336;2022-09-28T18:11:23;12.90;99.90
21487;DHT22;10905;50.822;4.336;2022-09-28T18:13:49;12.90;99.90
21487;DHT22;10905;50.822;4.336;2022-09-28T18:16:14;12.90;99.90
21487;DHT22;10905;50.822;4.336;2022-09-28T18:18:40;13.00;99.90
21487;DHT22;10905;50.822;4.336;2022-09-28T18:21:05;12.80;99.90
21487;DHT22;10905;50.822;4.336;2022-09-28T18:23:33;12.80;99.90
21487;DHT22;10905;50.822;4.336;2022-09-28T18:25:59;12.70;99.90
21487;DHT22;10905;50.822;4.336;2022-09-28T18:28:24;12.60;99.90
21487;DHT22;10905;50.822;4.336;2022-09-28T18:30:50;12.60;99.90
21487;DHT22;10905;50.822;4.336;2022-09-28T18:33:15;12.50;99.90
21487;DHT22;10905;50.822;4.336;2022-09-28T18:35:48;12.50;99.90